Lakki Marwat Weather



Lakki Marwat's Current Weather

Temprature 28.31o clear sky

clear sky

Rain: 0 %

Min Temprature28.31o
Max Temprature28.31o
Humidity38
Wind Speed2.55 m/h
Sun Rise05:12:57
Sun Set19:13:42
Current Time: 24-May-2022 07:33:51
Lat/Lon: 32.6079, 70.9114




Lakki Marwat's Geo Location



Lakki Marwat's Weather Forecast

Time Overall Temp Min Temp Max Temp Humidity Wind Speed Rain
24-May-2022 (Tue)
08:00:00 clear sky 28.310 28.310 28.310 38 2.55 m/h 0 %
11:00:00 clear sky 29.450 29.450 31.720 34 3.19 m/h 0 %
14:00:00 clear sky 32.560 32.560 34.680 25 2.52 m/h 0 %
17:00:00 clear sky 35.580 35.580 35.580 17 2.49 m/h 0 %
20:00:00 clear sky 33.470 33.470 33.470 19 2.69 m/h 0 %
23:00:00 clear sky 31.470 31.470 31.470 22 2.54 m/h 0 %
25-May-2022 (Wed)
02:00:00 clear sky 29.330 29.330 29.330 25 1.6 m/h 0 %
05:00:00 clear sky 27.610 27.610 27.610 29 1.31 m/h 0 %
08:00:00 clear sky 31.960 31.960 31.960 22 1.29 m/h 0 %
11:00:00 clear sky 36.060 36.060 36.060 17 3.19 m/h 0 %
14:00:00 clear sky 38.780 38.780 38.780 13 2.79 m/h 0 %
17:00:00 clear sky 39.740 39.740 39.740 12 2.33 m/h 0 %
20:00:00 clear sky 36.680 36.680 36.680 14 3.04 m/h 0 %
23:00:00 clear sky 34.490 34.490 34.490 16 2.96 m/h 0 %
26-May-2022 (Thu)
02:00:00 clear sky 31.940 31.940 31.940 19 1.41 m/h 0 %
05:00:00 clear sky 30.240 30.240 30.240 21 1.74 m/h 0 %
08:00:00 clear sky 34.950 34.950 34.950 17 1.48 m/h 0 %
11:00:00 clear sky 39.320 39.320 39.320 13 3.05 m/h 0 %
14:00:00 clear sky 42.420 42.420 42.420 10 3.28 m/h 0 %
17:00:00 clear sky 43.200 43.200 43.200 9 2.55 m/h 0 %
20:00:00 clear sky 39.450 39.450 39.450 10 2.81 m/h 0 %
23:00:00 clear sky 37.000 37.000 37.000 12 2.4 m/h 0 %
27-May-2022 (Fri)
02:00:00 scattered clouds 34.450 34.450 34.450 15 1.36 m/h 0 %
05:00:00 few clouds 31.850 31.850 31.850 18 1.42 m/h 0 %
08:00:00 clear sky 37.020 37.020 37.020 14 1.5 m/h 0 %
11:00:00 clear sky 42.270 42.270 42.270 10 3.14 m/h 0 %
14:00:00 clear sky 45.370 45.370 45.370 7 3.81 m/h 0 %
17:00:00 clear sky 45.840 45.840 45.840 6 5.9 m/h 0 %
20:00:00 clear sky 40.970 40.970 40.970 8 4.69 m/h 0 %
23:00:00 clear sky 37.940 37.940 37.940 13 4.62 m/h 0 %
28-May-2022 (Sat)
02:00:00 clear sky 35.710 35.710 35.710 17 3.34 m/h 0 %
05:00:00 clear sky 33.970 33.970 33.970 16 3.71 m/h 0 %
08:00:00 clear sky 38.170 38.170 38.170 12 3.66 m/h 0 %
11:00:00 clear sky 43.270 43.270 43.270 10 7.95 m/h 0 %
14:00:00 clear sky 45.190 45.190 45.190 9 9.87 m/h 0 %
17:00:00 clear sky 44.460 44.460 44.460 9 7.54 m/h 0 %
20:00:00 few clouds 37.940 37.940 37.940 15 8.83 m/h 0 %
23:00:00 scattered clouds 36.520 36.520 36.520 16 8.18 m/h 0 %
29-May-2022 (Sun)
02:00:00 overcast clouds 33.870 33.870 33.870 20 1.74 m/h 0 %
05:00:00 broken clouds 32.490 32.490 32.490 25 4.76 m/h 0 %

Famous Cities (61)